This is the latest recevied weather packets stored in our database for station/object LRSB. If no packets are shown the sender has not sent any weather packets the latest 10 day(s).
| Time | Temp. | Humidity | Pressure | Rain* | Wind** | Luminosity | Snow |
|---|---|---|---|---|---|---|---|
| 1777676592 | 6.11° C | 57% | 1023 hPa | - | - | - | - |
| 1777675691 | 6.11° C | 61% | 1023 hPa | - | - | - | - |
| 1777674791 | 6.11° C | 61% | 1023 hPa | - | - | - | - |
| 1777673891 | 7.22° C | 57% | 1023 hPa | - | - | - | - |
| 1777672991 | 7.22° C | 57% | 1023 hPa | - | - | - | - |
| 1777672091 | 7.22° C | 57% | 1023 hPa | - | - | - | - |
| 1777671192 | 7.22° C | 57% | 1023 hPa | - | - | - | - |
| 1777670291 | 7.22° C | 57% | 1023 hPa | - | - | - | - |
| 1777669392 | 7.22° C | 57% | 1023 hPa | - | - | - | - |
| 1777668491 | 7.78° C | 53% | 1023 hPa | - | - | - | - |
| 1777667591 | 7.78° C | 53% | 1023 hPa | - | - | - | - |
| 1777666691 | 7.22° C | 61% | 1023 hPa | - | - | - | - |
| 1777665791 | 7.22° C | 61% | 1023 hPa | - | - | - | - |
| 1777664909 | 7.22° C | 57% | 1023 hPa | - | - | - | - |
| 1777664013 | 7.22° C | 57% | 1023 hPa | - | - | - | - |
| 1777663091 | 7.22° C | 57% | 1023 hPa | - | - | - | - |
| 1777662191 | 7.22° C | 57% | 1023 hPa | - | - | - | - |
| 1777661291 | 5° C | 70% | 1023 hPa | - | - | - | - |
| 1777660420 | 5° C | 70% | 1023 hPa | - | - | - | - |
| 1777659492 | 6.11° C | 61% | 1023 hPa | - | - | - | - |
| 1777658614 | 6.11° C | 61% | 1023 hPa | - | - | - | - |
| 1777657691 | 7.78° C | 53% | 1023 hPa | - | - | - | - |
| 1777656791 | 7.78° C | 53% | 1023 hPa | - | - | - | - |
| 1777655916 | 11.11° C | 38% | 1023 hPa | - | - | - | - |
| 1777654991 | 11.11° C | 38% | 1023 hPa | - | - | - | - |
* Rain since midnight (hover to see other rain measurements)
** Current wind speed in m/s (hover to see current wind gust speed)